sensor_id;sensor_type;location;lat;lon;timestamp;pressure;altitude;pressure_sealevel;temperature;humidity
70916;BME280;58557;50.982;-3.222;2023-09-19T00:02:09;100164.31;;;16.24;54.83
70916;BME280;58557;50.982;-3.222;2023-09-19T00:04:35;100165.37;;;16.01;56.34
70916;BME280;58557;50.982;-3.222;2023-09-19T00:07:01;100165.51;;;15.95;56.89
70916;BME280;58557;50.982;-3.222;2023-09-19T00:09:26;100171.42;;;15.82;57.26
70916;BME280;58557;50.982;-3.222;2023-09-19T00:11:52;100170.19;;;15.39;59.44
70916;BME280;58557;50.982;-3.222;2023-09-19T00:14:17;100173.70;;;16.79;55.01
70916;BME280;58557;50.982;-3.222;2023-09-19T00:16:43;100170.28;;;16.64;54.94
70916;BME280;58557;50.982;-3.222;2023-09-19T00:19:09;100172.81;;;16.47;55.80
70916;BME280;58557;50.982;-3.222;2023-09-19T00:21:34;100167.39;;;16.72;54.11
70916;BME280;58557;50.982;-3.222;2023-09-19T00:24:00;100169.25;;;15.60;57.58
70916;BME280;58557;50.982;-3.222;2023-09-19T00:26:25;100165.74;;;15.65;57.05
70916;BME280;58557;50.982;-3.222;2023-09-19T00:28:52;100165.86;;;15.46;57.93
70916;BME280;58557;50.982;-3.222;2023-09-19T00:31:16;100162.32;;;15.83;57.65
70916;BME280;58557;50.982;-3.222;2023-09-19T00:33:42;100158.70;;;16.21;55.90
70916;BME280;58557;50.982;-3.222;2023-09-19T00:36:08;100157.17;;;15.84;57.16
70916;BME280;58557;50.982;-3.222;2023-09-19T00:38:33;100163.41;;;15.41;58.05
70916;BME280;58557;50.982;-3.222;2023-09-19T00:40:59;100154.49;;;16.01;56.79
70916;BME280;58557;50.982;-3.222;2023-09-19T00:43:25;100156.98;;;16.28;55.53
70916;BME280;58557;50.982;-3.222;2023-09-19T00:45:52;100159.53;;;15.66;56.91
70916;BME280;58557;50.982;-3.222;2023-09-19T00:48:16;100158.02;;;16.29;55.63
70916;BME280;58557;50.982;-3.222;2023-09-19T00:50:42;100156.42;;;16.39;55.19
70916;BME280;58557;50.982;-3.222;2023-09-19T00:53:07;100147.91;;;16.40;55.57
70916;BME280;58557;50.982;-3.222;2023-09-19T00:55:32;100146.72;;;16.50;55.54
70916;BME280;58557;50.982;-3.222;2023-09-19T00:57:57;100146.56;;;16.90;55.52
70916;BME280;58557;50.982;-3.222;2023-09-19T01:00:23;100150.31;;;16.57;55.38
70916;BME280;58557;50.982;-3.222;2023-09-19T01:02:49;100149.08;;;16.63;54.59
70916;BME280;58557;50.982;-3.222;2023-09-19T01:05:15;100150.61;;;17.08;53.87
70916;BME280;58557;50.982;-3.222;2023-09-19T01:07:40;100146.46;;;16.07;55.63
70916;BME280;58557;50.982;-3.222;2023-09-19T01:10:07;100147.36;;;17.04;54.01
70916;BME280;58557;50.982;-3.222;2023-09-19T01:12:38;100140.93;;;16.49;55.84
70916;BME280;58557;50.982;-3.222;2023-09-19T01:15:01;100139.97;;;17.09;54.48
70916;BME280;58557;50.982;-3.222;2023-09-19T01:17:27;100140.71;;;16.00;56.52
70916;BME280;58557;50.982;-3.222;2023-09-19T01:20:06;100147.54;;;15.92;58.37
70916;BME280;58557;50.982;-3.222;2023-09-19T01:22:19;100146.09;;;16.22;57.87
70916;BME280;58557;50.982;-3.222;2023-09-19T01:29:37;100148.25;;;16.42;56.15
70916;BME280;58557;50.982;-3.222;2023-09-19T01:31:58;100146.63;;;16.19;57.13
70916;BME280;58557;50.982;-3.222;2023-09-19T01:34:21;100148.06;;;16.42;56.12
70916;BME280;58557;50.982;-3.222;2023-09-19T01:36:47;100150.36;;;16.70;55.22
70916;BME280;58557;50.982;-3.222;2023-09-19T01:39:13;100150.96;;;16.66;55.75
70916;BME280;58557;50.982;-3.222;2023-09-19T01:41:46;100147.89;;;16.57;56.94
70916;BME280;58557;50.982;-3.222;2023-09-19T01:44:06;100142.31;;;16.80;56.67
70916;BME280;58557;50.982;-3.222;2023-09-19T01:46:32;100143.26;;;16.38;58.29
70916;BME280;58557;50.982;-3.222;2023-09-19T01:49:01;100141.43;;;16.73;56.09
70916;BME280;58557;50.982;-3.222;2023-09-19T01:51:22;100142.73;;;16.68;56.96
70916;BME280;58557;50.982;-3.222;2023-09-19T01:53:51;100140.52;;;17.18;54.91
70916;BME280;58557;50.982;-3.222;2023-09-19T01:56:16;100135.91;;;17.43;54.32
70916;BME280;58557;50.982;-3.222;2023-09-19T01:58:39;100130.88;;;17.74;53.36
70916;BME280;58557;50.982;-3.222;2023-09-19T02:01:01;100126.53;;;16.71;56.02
70916;BME280;58557;50.982;-3.222;2023-09-19T02:03:26;100124.05;;;16.75;56.03
70916;BME280;58557;50.982;-3.222;2023-09-19T02:05:52;100125.72;;;16.39;56.88
70916;BME280;58557;50.982;-3.222;2023-09-19T02:08:19;100123.24;;;16.63;57.30
70916;BME280;58557;50.982;-3.222;2023-09-19T02:10:43;100117.36;;;17.05;55.10
70916;BME280;58557;50.982;-3.222;2023-09-19T02:13:08;100107.64;;;17.07;54.97
70916;BME280;58557;50.982;-3.222;2023-09-19T02:15:34;100101.99;;;17.41;54.44
70916;BME280;58557;50.982;-3.222;2023-09-19T02:17:59;100104.30;;;17.14;53.62
70916;BME280;58557;50.982;-3.222;2023-09-19T02:20:25;100104.12;;;17.33;53.05
70916;BME280;58557;50.982;-3.222;2023-09-19T02:22:51;100103.86;;;17.00;55.11
70916;BME280;58557;50.982;-3.222;2023-09-19T02:25:16;100099.56;;;17.69;52.86
70916;BME280;58557;50.982;-3.222;2023-09-19T02:27:42;100094.60;;;17.96;52.10
70916;BME280;58557;50.982;-3.222;2023-09-19T02:30:08;100090.39;;;17.24;53.23
70916;BME280;58557;50.982;-3.222;2023-09-19T02:32:33;100088.35;;;17.03;53.48
70916;BME280;58557;50.982;-3.222;2023-09-19T02:34:59;100088.15;;;16.12;55.32
70916;BME280;58557;50.982;-3.222;2023-09-19T02:37:25;100084.72;;;17.31;54.06
70916;BME280;58557;50.982;-3.222;2023-09-19T02:39:50;100078.28;;;17.40;52.23
70916;BME280;58557;50.982;-3.222;2023-09-19T02:42:15;100081.47;;;17.01;53.12
70916;BME280;58557;50.982;-3.222;2023-09-19T02:44:41;100080.71;;;16.72;55.26
70916;BME280;58557;50.982;-3.222;2023-09-19T02:47:07;100074.45;;;17.22;54.63
70916;BME280;58557;50.982;-3.222;2023-09-19T02:49:33;100074.68;;;17.10;54.51
70916;BME280;58557;50.982;-3.222;2023-09-19T02:51:58;100080.33;;;16.96;54.34
70916;BME280;58557;50.982;-3.222;2023-09-19T02:54:24;100075.86;;;16.58;55.53
70916;BME280;58557;50.982;-3.222;2023-09-19T02:56:50;100073.37;;;16.93;54.76
70916;BME280;58557;50.982;-3.222;2023-09-19T02:59:15;100070.93;;;16.48;55.58
70916;BME280;58557;50.982;-3.222;2023-09-19T03:01:43;100060.93;;;16.02;56.97
70916;BME280;58557;50.982;-3.222;2023-09-19T03:04:06;100065.42;;;17.03;54.52
70916;BME280;58557;50.982;-3.222;2023-09-19T03:06:32;100056.91;;;16.86;54.57
70916;BME280;58557;50.982;-3.222;2023-09-19T03:08:58;100050.08;;;17.07;54.39
70916;BME280;58557;50.982;-3.222;2023-09-19T03:11:23;100040.85;;;17.08;54.80
70916;BME280;58557;50.982;-3.222;2023-09-19T03:13:51;100038.29;;;17.23;53.80
70916;BME280;58557;50.982;-3.222;2023-09-19T03:16:14;100032.42;;;16.86;54.56
70916;BME280;58557;50.982;-3.222;2023-09-19T03:18:40;100023.85;;;16.97;54.39
70916;BME280;58557;50.982;-3.222;2023-09-19T03:21:05;100015.24;;;17.38;52.92
70916;BME280;58557;50.982;-3.222;2023-09-19T03:23:31;100006.90;;;17.14;53.34
70916;BME280;58557;50.982;-3.222;2023-09-19T03:25:57;99998.58;;;16.64;53.64
70916;BME280;58557;50.982;-3.222;2023-09-19T03:28:23;100000.40;;;16.97;53.83
70916;BME280;58557;50.982;-3.222;2023-09-19T03:30:58;99991.78;;;16.40;56.44
70916;BME280;58557;50.982;-3.222;2023-09-19T03:33:14;99987.19;;;16.46;56.37
70916;BME280;58557;50.982;-3.222;2023-09-19T03:35:39;99993.65;;;16.64;56.33
70916;BME280;58557;50.982;-3.222;2023-09-19T03:38:05;99995.90;;;16.53;56.21
70916;BME280;58557;50.982;-3.222;2023-09-19T03:40:31;99994.00;;;16.41;56.67
70916;BME280;58557;50.982;-3.222;2023-09-19T03:42:56;99991.54;;;16.44;56.80
70916;BME280;58557;50.982;-3.222;2023-09-19T03:45:22;99989.47;;;16.08;58.99
70916;BME280;58557;50.982;-3.222;2023-09-19T03:47:47;99981.19;;;16.50;58.65
70916;BME280;58557;50.982;-3.222;2023-09-19T03:50:13;99980.50;;;16.30;58.52
70916;BME280;58557;50.982;-3.222;2023-09-19T03:52:39;99979.21;;;15.86;60.43
70916;BME280;58557;50.982;-3.222;2023-09-19T03:55:05;99974.30;;;15.49;63.07
70916;BME280;58557;50.982;-3.222;2023-09-19T03:57:30;99980.39;;;15.94;62.28
70916;BME280;58557;50.982;-3.222;2023-09-19T03:59:56;99987.92;;;16.40;60.02
70916;BME280;58557;50.982;-3.222;2023-09-19T04:02:21;99982.79;;;16.57;59.83
70916;BME280;58557;50.982;-3.222;2023-09-19T04:04:47;99983.39;;;16.95;58.72
70916;BME280;58557;50.982;-3.222;2023-09-19T04:07:13;99977.82;;;16.53;59.40
70916;BME280;58557;50.982;-3.222;2023-09-19T04:09:38;99977.26;;;16.45;60.47
70916;BME280;58557;50.982;-3.222;2023-09-19T04:12:05;99968.90;;;16.68;58.95
70916;BME280;58557;50.982;-3.222;2023-09-19T04:14:30;99964.08;;;16.64;58.90
70916;BME280;58557;50.982;-3.222;2023-09-19T04:16:55;99970.72;;;16.28;61.04
70916;BME280;58557;50.982;-3.222;2023-09-19T04:19:21;99960.91;;;16.58;59.57
70916;BME280;58557;50.982;-3.222;2023-09-19T04:21:46;99953.32;;;16.42;60.87
70916;BME280;58557;50.982;-3.222;2023-09-19T04:24:12;99946.03;;;17.01;58.99
70916;BME280;58557;50.982;-3.222;2023-09-19T04:26:38;99950.11;;;16.97;58.88
70916;BME280;58557;50.982;-3.222;2023-09-19T04:29:03;99949.11;;;16.52;60.44
70916;BME280;58557;50.982;-3.222;2023-09-19T04:31:28;99944.27;;;15.94;62.13
70916;BME280;58557;50.982;-3.222;2023-09-19T04:33:53;99941.77;;;15.98;63.85
70916;BME280;58557;50.982;-3.222;2023-09-19T04:36:19;99935.76;;;16.13;62.43
70916;BME280;58557;50.982;-3.222;2023-09-19T04:38:45;99927.99;;;16.41;62.39
70916;BME280;58557;50.982;-3.222;2023-09-19T04:41:11;99927.56;;;15.58;64.64
70916;BME280;58557;50.982;-3.222;2023-09-19T04:43:36;99929.40;;;16.55;61.35
70916;BME280;58557;50.982;-3.222;2023-09-19T04:46:02;99928.82;;;16.48;62.12
70916;BME280;58557;50.982;-3.222;2023-09-19T04:48:27;99931.53;;;16.27;63.78
70916;BME280;58557;50.982;-3.222;2023-09-19T04:50:53;99933.83;;;16.90;60.09
70916;BME280;58557;50.982;-3.222;2023-09-19T04:53:19;99934.43;;;16.75;60.43
70916;BME280;58557;50.982;-3.222;2023-09-19T04:55:44;99928.20;;;16.27;63.56
70916;BME280;58557;50.982;-3.222;2023-09-19T04:58:09;99931.13;;;15.56;64.98
70916;BME280;58557;50.982;-3.222;2023-09-19T05:00:35;99931.79;;;16.35;62.69
70916;BME280;58557;50.982;-3.222;2023-09-19T05:03:01;99932.08;;;16.20;62.02
70916;BME280;58557;50.982;-3.222;2023-09-19T05:05:27;99930.18;;;15.75;63.00
70916;BME280;58557;50.982;-3.222;2023-09-19T05:07:53;99932.48;;;15.72;64.23
70916;BME280;58557;50.982;-3.222;2023-09-19T05:10:18;99929.80;;;16.27;62.71
70916;BME280;58557;50.982;-3.222;2023-09-19T05:12:43;99931.99;;;16.29;63.70
70916;BME280;58557;50.982;-3.222;2023-09-19T05:15:09;99930.39;;;16.47;61.69
70916;BME280;58557;50.982;-3.222;2023-09-19T05:17:35;99924.36;;;15.99;63.22
70916;BME280;58557;50.982;-3.222;2023-09-19T05:20:00;99928.90;;;15.94;62.82
70916;BME280;58557;50.982;-3.222;2023-09-19T05:22:27;99918.38;;;16.68;61.74
70916;BME280;58557;50.982;-3.222;2023-09-19T05:24:51;99918.12;;;16.71;60.20
70916;BME280;58557;50.982;-3.222;2023-09-19T05:27:17;99913.60;;;16.09;63.29
70916;BME280;58557;50.982;-3.222;2023-09-19T05:29:42;99916.91;;;16.15;61.73
70916;BME280;58557;50.982;-3.222;2023-09-19T05:32:07;99917.61;;;16.04;63.22
70916;BME280;58557;50.982;-3.222;2023-09-19T05:34:33;99914.27;;;16.63;61.26
70916;BME280;58557;50.982;-3.222;2023-09-19T05:36:58;99919.27;;;16.18;63.50
70916;BME280;58557;50.982;-3.222;2023-09-19T05:39:24;99910.24;;;14.98;65.79
70916;BME280;58557;50.982;-3.222;2023-09-19T05:41:49;99906.80;;;16.05;63.21
70916;BME280;58557;50.982;-3.222;2023-09-19T05:44:15;99905.08;;;16.74;61.89
70916;BME280;58557;50.982;-3.222;2023-09-19T05:46:41;99907.68;;;16.60;60.97
70916;BME280;58557;50.982;-3.222;2023-09-19T05:49:06;99899.06;;;16.60;60.64
70916;BME280;58557;50.982;-3.222;2023-09-19T05:51:32;99894.64;;;16.99;59.83
70916;BME280;58557;50.982;-3.222;2023-09-19T05:53:57;99898.30;;;16.50;61.08
70916;BME280;58557;50.982;-3.222;2023-09-19T05:56:23;99898.59;;;16.60;60.61
70916;BME280;58557;50.982;-3.222;2023-09-19T05:58:49;99898.59;;;16.21;62.25
70916;BME280;58557;50.982;-3.222;2023-09-19T06:01:14;99887.12;;;15.58;64.88
70916;BME280;58557;50.982;-3.222;2023-09-19T06:03:40;99885.18;;;15.44;65.46
70916;BME280;58557;50.982;-3.222;2023-09-19T06:06:05;99883.21;;;15.32;66.98
70916;BME280;58557;50.982;-3.222;2023-09-19T06:08:31;99887.38;;;15.87;63.97
70916;BME280;58557;50.982;-3.222;2023-09-19T06:10:57;99889.83;;;15.74;65.34
70916;BME280;58557;50.982;-3.222;2023-09-19T06:13:22;99882.70;;;16.71;61.00
70916;BME280;58557;50.982;-3.222;2023-09-19T06:15:48;99871.01;;;16.58;60.73
70916;BME280;58557;50.982;-3.222;2023-09-19T06:18:13;99878.11;;;15.84;62.20
70916;BME280;58557;50.982;-3.222;2023-09-19T06:20:39;99872.54;;;16.48;61.16
70916;BME280;58557;50.982;-3.222;2023-09-19T06:23:04;99866.70;;;16.74;61.10
70916;BME280;58557;50.982;-3.222;2023-09-19T06:25:35;99867.22;;;16.58;60.43
70916;BME280;58557;50.982;-3.222;2023-09-19T06:27:56;99874.34;;;15.96;61.75
70916;BME280;58557;50.982;-3.222;2023-09-19T06:30:22;99860.44;;;16.72;59.79
70916;BME280;58557;50.982;-3.222;2023-09-19T06:32:46;99865.15;;;16.49;61.23
70916;BME280;58557;50.982;-3.222;2023-09-19T06:35:12;99859.77;;;16.64;61.05
70916;BME280;58557;50.982;-3.222;2023-09-19T06:37:37;99857.57;;;16.50;60.61
70916;BME280;58557;50.982;-3.222;2023-09-19T06:40:04;99867.73;;;16.60;60.29
70916;BME280;58557;50.982;-3.222;2023-09-19T06:42:29;99865.41;;;17.11;57.49
70916;BME280;58557;50.982;-3.222;2023-09-19T06:44:54;99863.72;;;16.88;58.94
70916;BME280;58557;50.982;-3.222;2023-09-19T06:47:19;99864.13;;;17.12;59.14
70916;BME280;58557;50.982;-3.222;2023-09-19T06:49:45;99864.85;;;17.40;58.42
70916;BME280;58557;50.982;-3.222;2023-09-19T06:52:10;99870.56;;;16.75;60.34
70916;BME280;58557;50.982;-3.222;2023-09-19T06:54:36;99868.85;;;17.65;58.42
70916;BME280;58557;50.982;-3.222;2023-09-19T06:57:02;99867.85;;;16.99;59.15
70916;BME280;58557;50.982;-3.222;2023-09-19T06:59:27;99857.64;;;17.37;58.30
70916;BME280;58557;50.982;-3.222;2023-09-19T07:01:53;99864.66;;;17.19;58.67
70916;BME280;58557;50.982;-3.222;2023-09-19T07:04:19;99860.73;;;17.17;58.81
70916;BME280;58557;50.982;-3.222;2023-09-19T07:06:44;99852.85;;;16.91;58.41
70916;BME280;58557;50.982;-3.222;2023-09-19T07:09:09;99851.25;;;16.93;58.62
70916;BME280;58557;50.982;-3.222;2023-09-19T07:11:37;99847.01;;;16.78;58.99
70916;BME280;58557;50.982;-3.222;2023-09-19T07:14:00;99836.72;;;16.87;58.95
70916;BME280;58557;50.982;-3.222;2023-09-19T07:16:28;99835.47;;;16.84;59.52
70916;BME280;58557;50.982;-3.222;2023-09-19T07:18:50;99841.28;;;17.18;59.34
70916;BME280;58557;50.982;-3.222;2023-09-19T07:21:16;99842.41;;;17.33;59.56
70916;BME280;58557;50.982;-3.222;2023-09-19T07:23:41;99853.39;;;16.30;63.01
70916;BME280;58557;50.982;-3.222;2023-09-19T07:26:07;99847.83;;;16.54;61.81
70916;BME280;58557;50.982;-3.222;2023-09-19T07:28:32;99845.21;;;16.69;60.41
70916;BME280;58557;50.982;-3.222;2023-09-19T07:31:01;99845.33;;;15.97;64.20
70916;BME280;58557;50.982;-3.222;2023-09-19T07:33:23;99848.41;;;15.89;64.60
70916;BME280;58557;50.982;-3.222;2023-09-19T07:35:49;99844.43;;;15.59;67.60
70916;BME280;58557;50.982;-3.222;2023-09-19T07:38:13;99842.81;;;16.00;66.14
70916;BME280;58557;50.982;-3.222;2023-09-19T07:40:39;99834.36;;;16.71;64.58
70916;BME280;58557;50.982;-3.222;2023-09-19T07:43:04;99829.34;;;16.12;64.24
70916;BME280;58557;50.982;-3.222;2023-09-19T07:45:29;99826.49;;;16.53;64.92
70916;BME280;58557;50.982;-3.222;2023-09-19T07:47:54;99831.50;;;16.13;66.23
70916;BME280;58557;50.982;-3.222;2023-09-19T07:50:20;99820.23;;;16.09;66.97
70916;BME280;58557;50.982;-3.222;2023-09-19T07:52:45;99821.14;;;16.23;68.24
70916;BME280;58557;50.982;-3.222;2023-09-19T07:55:11;99816.78;;;16.57;66.32
70916;BME280;58557;50.982;-3.222;2023-09-19T07:57:35;99821.05;;;16.51;66.85
70916;BME280;58557;50.982;-3.222;2023-09-19T08:00:01;99814.77;;;16.56;67.03
70916;BME280;58557;50.982;-3.222;2023-09-19T08:02:26;99816.10;;;16.02;70.49
70916;BME280;58557;50.982;-3.222;2023-09-19T08:04:51;99818.43;;;15.75;70.34
70916;BME280;58557;50.982;-3.222;2023-09-19T08:07:17;99819.30;;;15.81;71.04
70916;BME280;58557;50.982;-3.222;2023-09-19T08:09:42;99819.15;;;17.27;67.57
70916;BME280;58557;50.982;-3.222;2023-09-19T08:12:08;99815.87;;;17.00;68.52
70916;BME280;58557;50.982;-3.222;2023-09-19T08:14:33;99819.87;;;16.12;70.48
70916;BME280;58557;50.982;-3.222;2023-09-19T08:16:58;99808.56;;;16.34;70.65
70916;BME280;58557;50.982;-3.222;2023-09-19T08:19:23;99817.56;;;16.16;71.28
70916;BME280;58557;50.982;-3.222;2023-09-19T08:21:49;99815.20;;;16.05;72.32
70916;BME280;58557;50.982;-3.222;2023-09-19T08:24:14;99820.65;;;16.20;71.69
70916;BME280;58557;50.982;-3.222;2023-09-19T08:26:40;99805.70;;;15.86;73.03
70916;BME280;58557;50.982;-3.222;2023-09-19T08:29:05;99811.85;;;15.85;74.20
70916;BME280;58557;50.982;-3.222;2023-09-19T08:31:31;99805.51;;;16.10;72.01
70916;BME280;58557;50.982;-3.222;2023-09-19T08:33:56;99807.29;;;16.05;73.20
70916;BME280;58557;50.982;-3.222;2023-09-19T08:36:21;99795.66;;;16.52;72.62
70916;BME280;58557;50.982;-3.222;2023-09-19T08:38:47;99798.47;;;16.16;72.51
70916;BME280;58557;50.982;-3.222;2023-09-19T08:41:13;99795.52;;;16.44;71.37
70916;BME280;58557;50.982;-3.222;2023-09-19T08:43:38;99809.44;;;15.28;75.75
70916;BME280;58557;50.982;-3.222;2023-09-19T08:46:10;99817.43;;;15.83;74.01
70916;BME280;58557;50.982;-3.222;2023-09-19T08:48:29;99804.75;;;16.16;74.10
70916;BME280;58557;50.982;-3.222;2023-09-19T08:50:57;99814.69;;;16.38;73.58
70916;BME280;58557;50.982;-3.222;2023-09-19T08:53:26;99806.65;;;16.77;72.83
70916;BME280;58557;50.982;-3.222;2023-09-19T08:55:46;99816.29;;;16.81;71.28
70916;BME280;58557;50.982;-3.222;2023-09-19T08:58:15;99804.80;;;17.00;70.14
70916;BME280;58557;50.982;-3.222;2023-09-19T09:00:37;99810.94;;;17.00;70.53
70916;BME280;58557;50.982;-3.222;2023-09-19T09:03:03;99818.86;;;17.00;70.67
70916;BME280;58557;50.982;-3.222;2023-09-19T09:05:29;99823.08;;;16.98;72.19
70916;BME280;58557;50.982;-3.222;2023-09-19T09:07:54;99817.17;;;17.15;72.61
70916;BME280;58557;50.982;-3.222;2023-09-19T09:10:20;99826.36;;;17.47;70.99
70916;BME280;58557;50.982;-3.222;2023-09-19T09:12:45;99818.19;;;17.19;73.96
70916;BME280;58557;50.982;-3.222;2023-09-19T09:15:12;99815.26;;;16.67;75.41
70916;BME280;58557;50.982;-3.222;2023-09-19T09:17:36;99815.18;;;16.80;75.79
70916;BME280;58557;50.982;-3.222;2023-09-19T09:20:02;99810.36;;;17.54;72.38
70916;BME280;58557;50.982;-3.222;2023-09-19T09:22:28;99809.07;;;16.72;75.60
70916;BME280;58557;50.982;-3.222;2023-09-19T09:24:54;99811.40;;;16.40;77.90
70916;BME280;58557;50.982;-3.222;2023-09-19T09:27:19;99809.41;;;16.81;75.45
70916;BME280;58557;50.982;-3.222;2023-09-19T09:29:45;99814.31;;;17.67;74.31
70916;BME280;58557;50.982;-3.222;2023-09-19T09:32:19;99814.81;;;17.57;73.90
70916;BME280;58557;50.982;-3.222;2023-09-19T09:34:36;99812.19;;;17.53;75.01
70916;BME280;58557;50.982;-3.222;2023-09-19T09:37:01;99815.38;;;17.52;73.28
70916;BME280;58557;50.982;-3.222;2023-09-19T09:39:30;99811.80;;;17.17;73.38
70916;BME280;58557;50.982;-3.222;2023-09-19T09:41:52;99811.50;;;18.20;71.23
70916;BME280;58557;50.982;-3.222;2023-09-19T09:44:18;99811.84;;;17.81;71.36
70916;BME280;58557;50.982;-3.222;2023-09-19T09:46:44;99810.61;;;18.10;70.86
70916;BME280;58557;50.982;-3.222;2023-09-19T09:49:10;99821.92;;;17.94;71.98
70916;BME280;58557;50.982;-3.222;2023-09-19T09:51:35;99808.03;;;17.54;73.81
70916;BME280;58557;50.982;-3.222;2023-09-19T09:54:10;99817.41;;;17.64;74.26
70916;BME280;58557;50.982;-3.222;2023-09-19T09:56:26;99808.37;;;17.02;75.22
70916;BME280;58557;50.982;-3.222;2023-09-19T09:58:52;99815.19;;;18.57;72.16
70916;BME280;58557;50.982;-3.222;2023-09-19T10:01:17;99813.39;;;17.87;74.43
70916;BME280;58557;50.982;-3.222;2023-09-19T10:03:43;99807.25;;;17.98;73.95
70916;BME280;58557;50.982;-3.222;2023-09-19T10:06:11;99813.81;;;17.68;75.04
70916;BME280;58557;50.982;-3.222;2023-09-19T10:08:34;99812.95;;;18.35;72.55
70916;BME280;58557;50.982;-3.222;2023-09-19T10:11:00;99817.13;;;17.44;75.97
70916;BME280;58557;50.982;-3.222;2023-09-19T10:13:26;99814.56;;;17.18;77.34
70916;BME280;58557;50.982;-3.222;2023-09-19T10:15:51;99814.60;;;18.13;73.42
70916;BME280;58557;50.982;-3.222;2023-09-19T10:18:19;99815.92;;;17.90;75.22
70916;BME280;58557;50.982;-3.222;2023-09-19T10:20:42;99815.20;;;17.73;76.10
70916;BME280;58557;50.982;-3.222;2023-09-19T10:23:10;99816.66;;;17.92;75.29
70916;BME280;58557;50.982;-3.222;2023-09-19T10:25:36;99819.57;;;17.39;77.61
70916;BME280;58557;50.982;-3.222;2023-09-19T10:28:00;99813.11;;;17.90;77.79
70916;BME280;58557;50.982;-3.222;2023-09-19T10:30:25;99825.76;;;18.00;75.93
70916;BME280;58557;50.982;-3.222;2023-09-19T10:32:57;99826.96;;;18.28;73.49
70916;BME280;58557;50.982;-3.222;2023-09-19T10:35:17;99826.55;;;18.26;74.96
70916;BME280;58557;50.982;-3.222;2023-09-19T10:37:45;99822.51;;;19.07;72.18
70916;BME280;58557;50.982;-3.222;2023-09-19T10:40:08;99823.03;;;17.83;74.23
70916;BME280;58557;50.982;-3.222;2023-09-19T10:42:34;99829.40;;;18.26;75.08
70916;BME280;58557;50.982;-3.222;2023-09-19T10:44:59;99830.85;;;17.25;77.32
70916;BME280;58557;50.982;-3.222;2023-09-19T10:47:24;99820.90;;;17.34;77.65
70916;BME280;58557;50.982;-3.222;2023-09-19T10:49:50;99826.49;;;17.45;77.58
70916;BME280;58557;50.982;-3.222;2023-09-19T10:52:18;99825.40;;;17.84;75.77
70916;BME280;58557;50.982;-3.222;2023-09-19T10:54:46;99824.64;;;17.79;76.50
70916;BME280;58557;50.982;-3.222;2023-09-19T10:57:09;99822.96;;;17.44;78.94
70916;BME280;58557;50.982;-3.222;2023-09-19T10:59:32;99810.89;;;17.37;78.68
70916;BME280;58557;50.982;-3.222;2023-09-19T11:01:57;99808.18;;;17.78;78.43
70916;BME280;58557;50.982;-3.222;2023-09-19T11:04:24;99803.00;;;17.99;77.05
70916;BME280;58557;50.982;-3.222;2023-09-19T11:06:59;99799.36;;;18.05;77.42
70916;BME280;58557;50.982;-3.222;2023-09-19T11:09:14;99800.12;;;18.34;75.47
70916;BME280;58557;50.982;-3.222;2023-09-19T11:11:41;99805.24;;;18.57;74.81
70916;BME280;58557;50.982;-3.222;2023-09-19T11:16:31;99806.58;;;17.94;73.86
70916;BME280;58557;50.982;-3.222;2023-09-19T11:18:56;99807.82;;;18.93;71.85
70916;BME280;58557;50.982;-3.222;2023-09-19T11:28:38;99794.99;;;19.15;71.64
70916;BME280;58557;50.982;-3.222;2023-09-19T11:33:30;99795.48;;;19.73;67.43
70916;BME280;58557;50.982;-3.222;2023-09-19T11:36:01;99792.97;;;19.20;69.18
70916;BME280;58557;50.982;-3.222;2023-09-19T11:40:46;99797.78;;;19.07;68.70
70916;BME280;58557;50.982;-3.222;2023-09-19T11:43:30;99794.86;;;19.74;66.11
70916;BME280;58557;50.982;-3.222;2023-09-19T11:48:03;99802.25;;;20.18;64.94
70916;BME280;58557;50.982;-3.222;2023-09-19T11:50:31;99808.51;;;19.72;64.78
70916;BME280;58557;50.982;-3.222;2023-09-19T11:52:54;99799.56;;;18.16;70.92
70916;BME280;58557;50.982;-3.222;2023-09-19T11:55:19;99811.27;;;18.38;71.56
70916;BME280;58557;50.982;-3.222;2023-09-19T11:57:45;99807.25;;;17.65;74.27
70916;BME280;58557;50.982;-3.222;2023-09-19T12:00:17;99814.87;;;18.58;73.75
70916;BME280;58557;50.982;-3.222;2023-09-19T12:02:39;99810.05;;;17.84;74.55
70916;BME280;58557;50.982;-3.222;2023-09-19T12:05:02;99818.76;;;19.01;71.79
70916;BME280;58557;50.982;-3.222;2023-09-19T12:07:27;99825.16;;;18.88;73.23
70916;BME280;58557;50.982;-3.222;2023-09-19T12:10:04;99831.81;;;18.11;75.01
70916;BME280;58557;50.982;-3.222;2023-09-19T12:12:20;99823.31;;;18.63;73.72
70916;BME280;58557;50.982;-3.222;2023-09-19T12:14:47;99826.74;;;17.11;78.12
70916;BME280;58557;50.982;-3.222;2023-09-19T12:17:09;99821.26;;;18.88;73.29
70916;BME280;58557;50.982;-3.222;2023-09-19T12:19:35;99808.64;;;18.56;72.96
70916;BME280;58557;50.982;-3.222;2023-09-19T12:22:02;99810.62;;;19.15;69.56
70916;BME280;58557;50.982;-3.222;2023-09-19T12:24:27;99814.48;;;19.94;68.94
70916;BME280;58557;50.982;-3.222;2023-09-19T12:26:52;99819.06;;;20.23;67.48
70916;BME280;58557;50.982;-3.222;2023-09-19T12:29:18;99818.60;;;20.60;63.98
70916;BME280;58557;50.982;-3.222;2023-09-19T12:31:50;99825.53;;;19.55;66.93
70916;BME280;58557;50.982;-3.222;2023-09-19T12:34:08;99827.65;;;20.09;64.86
70916;BME280;58557;50.982;-3.222;2023-09-19T12:36:33;99836.82;;;19.39;65.20
70916;BME280;58557;50.982;-3.222;2023-09-19T12:38:59;99828.78;;;20.06;64.26
70916;BME280;58557;50.982;-3.222;2023-09-19T12:41:24;99828.34;;;20.07;64.26
70916;BME280;58557;50.982;-3.222;2023-09-19T12:43:49;99825.39;;;19.92;66.61
70916;BME280;58557;50.982;-3.222;2023-09-19T12:46:14;99824.05;;;21.83;59.77
70916;BME280;58557;50.982;-3.222;2023-09-19T12:48:40;99823.40;;;20.72;59.05
70916;BME280;58557;50.982;-3.222;2023-09-19T12:51:06;99839.54;;;22.66;56.42
70916;BME280;58557;50.982;-3.222;2023-09-19T12:53:32;99842.84;;;23.06;51.79
70916;BME280;58557;50.982;-3.222;2023-09-19T12:56:00;99836.87;;;21.21;55.16
70916;BME280;58557;50.982;-3.222;2023-09-19T12:58:22;99825.60;;;22.65;52.40
70916;BME280;58557;50.982;-3.222;2023-09-19T13:00:48;99820.74;;;21.20;54.89